Time;durP1;ratioP1;P1;durP2;ratioP2;P2;SDS_P1;SDS_P2;PMS_P1;PMS_P2;Temp;Humidity;BMP_temperature;BMP_pressure;BME280_temperature;BME280_humidity;BME280_pressure;Samples;Min_cycle;Max_cycle;Signal;HPM_P1;HPM_P2
2022/02/03 00:00:44;;;;;;;19.95;3.10;;;;;;;;;;4994226;28;20520;-70
2022/02/03 00:05:45;;;;;;;16.45;4.82;;;;;;;;;;4994303;28;20037;-70
2022/02/03 00:08:24;;;;;;;19.77;5.13;;;;;;;;;;4994118;28;20026;-71
2022/02/03 00:24:29;;;;;;;17.08;3.42;;;;;;;;;;4993401;28;20041;-70
2022/02/03 00:27:04;;;;;;;18.80;3.47;;;;;;;;;;4991971;28;20428;-70
2022/02/03 00:32:38;;;;;;;18.33;3.63;;;;;;;;;;4993629;28;20484;-70
2022/02/03 00:48:44;;;;;;;14.55;3.60;;;;;;;;;;4993724;28;20092;-69
2022/02/03 00:51:10;;;;;;;23.73;3.53;;;;;;;;;;4993167;28;20026;-70
2022/02/03 00:53:37;;;;;;;21.60;2.85;;;;;;;;;;4992159;28;20061;-70
2022/02/03 00:56:08;;;;;;;17.83;3.15;;;;;;;;;;4993114;28;20037;-70
2022/02/03 00:58:40;;;;;;;23.10;4.25;;;;;;;;;;4992932;28;20106;-70
2022/02/03 01:01:07;;;;;;;18.35;3.53;;;;;;;;;;4993074;28;20505;-71
2022/02/03 01:03:33;;;;;;;17.63;3.60;;;;;;;;;;4992211;28;20037;-70
2022/02/03 01:06:00;;;;;;;23.65;6.07;;;;;;;;;;4992922;28;20048;-71
2022/02/03 01:08:28;;;;;;;22.48;3.97;;;;;;;;;;4993240;28;20109;-70
2022/02/03 01:11:04;;;;;;;24.02;3.85;;;;;;;;;;4993088;28;20091;-71
2022/02/03 01:16:07;;;;;;;14.57;2.88;;;;;;;;;;4993335;28;20073;-70
2022/02/03 01:45:19;;;;;;;16.48;4.05;;;;;;;;;;4992445;28;20126;-70
2022/02/03 01:52:46;;;;;;;17.52;3.33;;;;;;;;;;4992384;28;20117;-70
2022/02/03 01:55:20;;;;;;;18.90;2.90;;;;;;;;;;4984431;28;20037;-70
2022/02/03 01:57:57;;;;;;;15.88;3.80;;;;;;;;;;4972932;28;20430;-70
2022/02/03 02:00:23;;;;;;;9.82;2.80;;;;;;;;;;4987807;28;20027;-70
2022/02/03 02:03:09;;;;;;;14.25;2.35;;;;;;;;;;4972302;28;20019;-71
2022/02/03 02:05:35;;;;;;;18.80;3.78;;;;;;;;;;4972796;28;20074;-70
2022/02/03 02:08:11;;;;;;;15.10;3.75;;;;;;;;;;4972795;28;20039;-70
2022/02/03 02:16:28;;;;;;;14.13;3.35;;;;;;;;;;4982097;28;20054;-70
2022/02/03 02:19:08;;;;;;;;;;;;;;;;;;;;;
2022/02/03 02:38:14;;;;;;;;;;;;;;;;;;;;;
2022/02/03 02:43:37;;;;;;;17.13;3.88;;;;;;;;;;4986503;28;20069;-70
2022/02/03 02:46:06;;;;;;;18.30;3.00;;;;;;;;;;4972438;28;20022;-71
2022/02/03 02:48:42;;;;;;;19.38;3.42;;;;;;;;;;4972288;28;20039;-70
2022/02/03 02:51:13;;;;;;;14.38;2.50;;;;;;;;;;4972118;28;20030;-70
2022/02/03 02:56:28;;;;;;;19.65;3.03;;;;;;;;;;4972342;28;20069;-70
2022/02/03 03:02:04;;;;;;;10.63;2.65;;;;;;;;;;4972328;28;20042;-70
2022/02/03 03:29:55;;;;;;;16.42;2.90;;;;;;;;;;4995189;28;20045;-71
2022/02/03 03:37:41;;;;;;;18.15;3.35;;;;;;;;;;4994975;28;20045;-71
2022/02/03 03:40:07;;;;;;;12.82;2.75;;;;;;;;;;4994707;28;20332;-70
2022/02/03 03:42:35;;;;;;;18.05;2.88;;;;;;;;;;4994612;28;20030;-70
2022/02/03 03:45:03;;;;;;;11.52;2.80;;;;;;;;;;4993700;28;20027;-70
2022/02/03 03:47:32;;;;;;;19.50;3.60;;;;;;;;;;4991122;28;20301;-70
2022/02/03 03:50:09;;;;;;;23.02;3.45;;;;;;;;;;4991933;28;20110;-70
2022/02/03 03:52:43;;;;;;;15.77;2.78;;;;;;;;;;4994924;28;20026;-70
2022/02/03 04:29:59;;;;;;;16.20;2.78;;;;;;;;;;4994207;28;20085;-71
2022/02/03 05:01:23;;;;;;;18.15;3.50;;;;;;;;;;4993097;28;20042;-69
2022/02/03 05:06:48;;;;;;;14.55;3.25;;;;;;;;;;4993332;28;20113;-70
2022/02/03 05:12:54;;;;;;;18.00;3.75;;;;;;;;;;4962138;28;20038;-70
2022/02/03 05:15:50;;;;;;;17.70;2.85;;;;;;;;;;4992965;28;20051;-70
2022/02/03 05:21:55;;;;;;;15.38;3.58;;;;;;;;;;4993022;28;20033;-71
2022/02/03 05:33:22;;;;;;;;;;;;;;;;;;4992501;28;20340;-70
2022/02/03 05:49:55;;;;;;;17.42;4.03;;;;;;;;;;4992840;28;20113;-71
2022/02/03 06:05:47;;;;;;;16.02;3.35;;;;;;;;;;4992318;28;20129;-71
2022/02/03 06:08:30;;;;;;;16.70;4.05;;;;;;;;;;4992756;28;20392;-71
2022/02/03 06:14:03;;;;;;;18.73;3.83;;;;;;;;;;4990130;28;20106;-71
2022/02/03 06:22:39;;;;;;;;;;;;;;;;;;;;;
2022/02/03 06:27:38;;;;;;;13.75;4.18;;;;;;;;;;4991907;28;20114;-70
2022/02/03 06:30:05;;;;;;;14.90;3.65;;;;;;;;;;4992021;28;20037;-72
2022/02/03 06:32:31;;;;;;;15.95;5.13;;;;;;;;;;4992270;28;20022;-71
2022/02/03 06:34:57;;;;;;;23.20;5.15;;;;;;;;;;4990987;28;20382;-70
2022/02/03 06:37:23;;;;;;;16.40;3.92;;;;;;;;;;4991606;28;20433;-71
2022/02/03 06:39:49;;;;;;;19.48;5.15;;;;;;;;;;4991510;28;20026;-69
2022/02/03 06:42:15;;;;;;;19.65;5.30;;;;;;;;;;4994386;28;20030;-70
2022/02/03 06:44:46;;;;;;;20.20;4.90;;;;;;;;;;4994810;28;20113;-71
2022/02/03 06:52:12;;;;;;;13.65;3.28;;;;;;;;;;4993457;28;20027;-72
2022/02/03 06:57:24;;;;;;;13.88;2.47;;;;;;;;;;4995169;28;20049;-70
2022/02/03 07:00:00;;;;;;;11.48;2.63;;;;;;;;;;4995191;28;20027;-69
2022/02/03 07:02:30;;;;;;;11.82;2.85;;;;;;;;;;4995640;28;20026;-69
2022/02/03 07:04:57;;;;;;;16.77;2.83;;;;;;;;;;4994450;28;20030;-70
2022/02/03 07:07:24;;;;;;;9.68;2.85;;;;;;;;;;4995109;28;20508;-69
2022/02/03 07:09:52;;;;;;;13.32;2.88;;;;;;;;;;5010115;28;20030;-70
2022/02/03 07:12:19;;;;;;;12.90;4.00;;;;;;;;;;4995084;28;20053;-71
2022/02/03 07:14:45;;;;;;;13.77;4.35;;;;;;;;;;4994123;28;20049;-70
2022/02/03 07:17:11;;;;;;;17.55;3.15;;;;;;;;;;4993161;28;20484;-71
2022/02/03 07:19:44;;;;;;;14.30;4.00;;;;;;;;;;4994579;28;20498;-72
2022/02/03 07:22:10;;;;;;;6.95;2.10;;;;;;;;;;4995258;28;20027;-72
2022/02/03 07:24:36;;;;;;;6.28;2.30;;;;;;;;;;4993990;28;20026;-70
2022/02/03 07:27:02;;;;;;;13.88;2.30;;;;;;;;;;5010057;28;20015;-71
2022/02/03 07:29:28;;;;;;;6.75;1.95;;;;;;;;;;4994598;28;20046;-71
2022/02/03 07:31:54;;;;;;;11.30;2.78;;;;;;;;;;4994675;28;20080;-72
2022/02/03 07:34:20;;;;;;;10.27;2.47;;;;;;;;;;4994079;28;20022;-72
2022/02/03 07:36:47;;;;;;;13.10;3.38;;;;;;;;;;4986840;28;20029;-72
2022/02/03 07:39:13;;;;;;;12.23;2.97;;;;;;;;;;4974911;28;20050;-76
2022/02/03 07:41:40;;;;;;;7.15;3.33;;;;;;;;;;4975019;28;20023;-76
2022/02/03 07:44:08;;;;;;;12.02;2.42;;;;;;;;;;4974413;28;20046;-75
2022/02/03 07:46:34;;;;;;;12.95;3.28;;;;;;;;;;4974842;28;20031;-74
2022/02/03 07:49:00;;;;;;;64.55;31.50;;;;;;;;;;4975121;28;20042;-75
2022/02/03 07:51:26;;;;;;;35.03;12.32;;;;;;;;;;4975188;28;20027;-76
2022/02/03 07:53:53;;;;;;;83.38;35.67;;;;;;;;;;4977091;28;20022;-77
2022/02/03 07:56:19;;;;;;;24.85;9.95;;;;;;;;;;4973828;28;20107;-76
2022/02/03 07:58:45;;;;;;;128.30;58.08;;;;;;;;;;4973475;28;20531;-76
2022/02/03 08:01:11;;;;;;;85.70;37.42;;;;;;;;;;4973678;28;20058;-76
2022/02/03 08:03:45;;;;;;;77.65;36.97;;;;;;;;;;4973097;28;20034;-76
2022/02/03 08:06:17;;;;;;;78.53;34.08;;;;;;;;;;4973820;28;20396;-72
2022/02/03 08:08:51;;;;;;;35.72;17.40;;;;;;;;;;4972969;28;20030;-71
2022/02/03 08:11:24;;;;;;;94.88;41.05;;;;;;;;;;4972487;28;20023;-71
2022/02/03 08:16:23;;;;;;;28.27;12.90;;;;;;;;;;4973771;28;20037;-73
2022/02/03 08:18:58;;;;;;;19.33;8.27;;;;;;;;;;4973811;28;20023;-71
2022/02/03 08:21:24;;;;;;;20.40;7.28;;;;;;;;;;4973838;28;20062;-71
2022/02/03 08:24:14;;;;;;;12.00;4.60;;;;;;;;;;4973240;28;20086;-71
2022/02/03 08:26:49;;;;;;;30.83;9.90;;;;;;;;;;4973827;28;20438;-71
2022/02/03 08:31:51;;;;;;;16.48;6.75;;;;;;;;;;4973567;28;20086;-72
2022/02/03 08:34:22;;;;;;;16.48;4.03;;;;;;;;;;4972808;28;20023;-73
2022/02/03 08:36:48;;;;;;;16.10;5.82;;;;;;;;;;4973359;28;20026;-72
2022/02/03 08:39:19;;;;;;;16.10;7.28;;;;;;;;;;4973227;28;20030;-72
2022/02/03 08:41:45;;;;;;;17.58;6.72;;;;;;;;;;4973292;28;20520;-72
2022/02/03 08:44:11;;;;;;;8.35;2.53;;;;;;;;;;4972849;28;20504;-73
2022/02/03 08:46:37;;;;;;;7.03;2.75;;;;;;;;;;4973182;28;20031;-72
2022/02/03 08:49:06;;;;;;;14.90;5.68;;;;;;;;;;4973042;28;20556;-73
2022/02/03 08:51:32;;;;;;;15.02;5.30;;;;;;;;;;4972991;28;20547;-72
2022/02/03 08:54:06;;;;;;;15.60;6.88;;;;;;;;;;4937456;28;1022410;-72
2022/02/03 08:59:36;;;;;;;7.50;2.72;;;;;;;;;;4974063;28;20178;-71
2022/02/03 09:37:38;;;;;;;24.58;4.53;;;;;;;;;;4973163;28;20027;-70
2022/02/03 09:59:37;;;;;;;8.75;3.08;;;;;;;;;;4993670;28;20054;-72
2022/02/03 10:01:54;;;;;;;8.85;2.75;;;;;;;;;;4991802;28;20069;-72
2022/02/03 10:04:43;;;;;;;5.70;2.90;;;;;;;;;;4991483;28;20074;-69
2022/02/03 10:07:16;;;;;;;9.98;2.58;;;;;;;;;;4992633;28;20077;-71
2022/02/03 10:09:45;;;;;;;10.90;3.10;;;;;;;;;;4992456;28;20025;-72
2022/02/03 10:12:12;;;;;;;7.85;2.97;;;;;;;;;;4992339;28;20030;-72
2022/02/03 10:14:40;;;;;;;9.15;2.33;;;;;;;;;;4991769;28;20026;-71
2022/02/03 10:17:07;;;;;;;7.57;2.40;;;;;;;;;;4995203;28;20121;-72
2022/02/03 10:19:36;;;;;;;10.00;2.67;;;;;;;;;;4996423;28;20120;-72
2022/02/03 10:22:03;;;;;;;6.82;3.35;;;;;;;;;;4995107;28;20037;-72
2022/02/03 10:24:33;;;;;;;8.68;2.80;;;;;;;;;;4995981;28;20030;-73
2022/02/03 10:27:14;;;;;;;11.68;4.05;;;;;;;;;;4997904;28;20030;-77
2022/02/03 10:29:45;;;;;;;17.10;6.63;;;;;;;;;;4998071;28;20033;-73
2022/02/03 10:32:11;;;;;;;15.93;4.95;;;;;;;;;;4998071;28;20023;-72
2022/02/03 10:34:41;;;;;;;8.85;4.20;;;;;;;;;;4996870;28;20519;-71
2022/02/03 10:37:26;;;;;;;12.63;5.23;;;;;;;;;;4998602;28;20065;-73
2022/02/03 10:52:56;;;;;;;5.57;2.60;;;;;;;;;;4999399;28;20472;-72
2022/02/03 11:05:51;;;;;;;9.35;3.33;;;;;;;;;;5015895;28;20030;-72
2022/02/03 11:08:25;;;;;;;15.07;6.18;;;;;;;;;;5015344;28;20407;-72
2022/02/03 11:10:56;;;;;;;10.13;3.70;;;;;;;;;;5014210;28;20088;-73
2022/02/03 11:13:29;;;;;;;8.15;3.22;;;;;;;;;;5014975;28;20022;-72
2022/02/03 11:15:56;;;;;;;8.20;3.70;;;;;;;;;;5015770;28;20022;-72
2022/02/03 11:18:24;;;;;;;4.15;2.40;;;;;;;;;;5015885;28;20022;-76
2022/02/03 11:20:50;;;;;;;10.00;5.05;;;;;;;;;;5015403;28;20033;-73
2022/02/03 11:40:10;;;;;;;4.95;2.40;;;;;;;;;;5014855;28;20033;-72
2022/02/03 12:20:21;;;;;;;10.02;4.68;;;;;;;;;;4997162;28;20077;-72
2022/02/03 12:25:33;;;;;;;12.18;5.00;;;;;;;;;;5005949;28;20574;-71
2022/02/03 12:28:31;;;;;;;11.93;5.47;;;;;;;;;;5015272;28;20025;-72
2022/02/03 12:31:13;;;;;;;15.10;5.43;;;;;;;;;;5027680;28;20053;-72
2022/02/03 12:42:20;;;;;;;13.38;5.10;;;;;;;;;;5020627;28;20091;-73
2022/02/03 12:44:23;;;;;;;13.00;5.50;;;;;;;;;;5017417;28;20035;-73
2022/02/03 12:46:50;;;;;;;11.18;5.10;;;;;;;;;;5022724;28;20041;-72
2022/02/03 12:49:19;;;;;;;13.30;5.10;;;;;;;;;;5023546;28;20033;-72
2022/02/03 12:51:45;;;;;;;12.57;5.13;;;;;;;;;;5023915;28;20040;-72
2022/02/03 12:54:12;;;;;;;12.05;5.28;;;;;;;;;;5026265;28;20030;-73
2022/02/03 12:56:38;;;;;;;12.82;6.00;;;;;;;;;;5025564;28;20026;-72
2022/02/03 12:59:04;;;;;;;25.52;5.85;;;;;;;;;;5022835;28;20026;-72
2022/02/03 13:01:33;;;;;;;12.23;5.00;;;;;;;;;;5019283;28;20148;-72
2022/02/03 13:04:03;;;;;;;12.10;4.72;;;;;;;;;;5014723;28;20029;-71
2022/02/03 13:06:31;;;;;;;8.35;4.60;;;;;;;;;;5014173;28;20022;-71
2022/02/03 13:09:00;;;;;;;12.48;5.13;;;;;;;;;;5012805;28;20403;-71
2022/02/03 13:11:34;;;;;;;;;;;;;;;;;;;;;
2022/02/03 13:14:05;;;;;;;12.50;5.50;;;;;;;;;;5012664;28;20029;-71
2022/02/03 13:16:31;;;;;;;10.32;5.30;;;;;;;;;;5012980;28;20558;-71
2022/02/03 13:26:55;;;;;;;14.95;6.18;;;;;;;;;;5013091;28;20026;-72
2022/02/03 13:29:33;;;;;;;18.17;5.70;;;;;;;;;;5011837;28;20474;-71
2022/02/03 13:32:11;;;;;;;15.40;5.72;;;;;;;;;;5011910;28;20037;-71
2022/02/03 13:34:46;;;;;;;15.05;5.45;;;;;;;;;;5012325;28;20018;-72
2022/02/03 13:37:19;;;;;;;10.88;5.85;;;;;;;;;;5013062;28;20369;-72
2022/02/03 13:39:49;;;;;;;15.80;6.15;;;;;;;;;;5012750;28;20483;-71
2022/02/03 13:42:16;;;;;;;18.88;6.45;;;;;;;;;;5011291;28;20026;-72
2022/02/03 13:44:42;;;;;;;14.15;6.00;;;;;;;;;;5011819;28;20033;-71
2022/02/03 13:47:24;;;;;;;15.15;6.60;;;;;;;;;;5012494;28;20021;-72
2022/02/03 13:50:26;;;;;;;17.67;7.35;;;;;;;;;;5010849;28;20018;-72
2022/02/03 13:53:05;;;;;;;14.02;6.93;;;;;;;;;;5002255;28;20034;-72
2022/02/03 14:15:13;;;;;;;12.70;5.95;;;;;;;;;;4999646;28;20387;-73
2022/02/03 14:28:05;;;;;;;14.10;5.68;;;;;;;;;;5012328;28;20045;-72
2022/02/03 14:30:31;;;;;;;13.50;6.25;;;;;;;;;;5010454;28;20090;-72
2022/02/03 14:32:59;;;;;;;17.27;6.40;;;;;;;;;;5011216;28;20025;-72
2022/02/03 14:35:25;;;;;;;19.10;7.15;;;;;;;;;;5012173;28;20032;-73
2022/02/03 14:38:00;;;;;;;18.42;6.70;;;;;;;;;;5011619;28;20041;-73
2022/02/03 14:40:36;;;;;;;15.98;6.60;;;;;;;;;;5011950;28;20070;-72
2022/02/03 14:43:05;;;;;;;16.85;7.43;;;;;;;;;;5011245;28;20530;-73
2022/02/03 14:45:31;;;;;;;14.98;6.63;;;;;;;;;;5011868;28;20042;-72
2022/02/03 14:47:57;;;;;;;13.95;6.57;;;;;;;;;;5011846;28;20037;-72
2022/02/03 14:50:23;;;;;;;14.80;7.25;;;;;;;;;;5011499;28;20033;-71
2022/02/03 14:53:02;;;;;;;14.23;6.55;;;;;;;;;;5010994;28;20492;-73
2022/02/03 15:00:40;;;;;;;13.38;6.75;;;;;;;;;;5011548;28;20512;-72
2022/02/03 15:03:06;;;;;;;17.58;7.90;;;;;;;;;;5013774;28;20045;-71
2022/02/03 15:05:36;;;;;;;13.52;8.10;;;;;;;;;;5015257;28;20034;-72
2022/02/03 15:08:04;;;;;;;15.48;7.90;;;;;;;;;;5013659;28;20108;-73
2022/02/03 15:15:28;;;;;;;22.30;9.90;;;;;;;;;;5015446;28;20037;-71
2022/02/03 15:17:54;;;;;;;17.38;8.23;;;;;;;;;;5013782;28;20014;-71
2022/02/03 15:20:20;;;;;;;23.48;11.65;;;;;;;;;;5014103;28;20033;-72
2022/02/03 15:22:46;;;;;;;20.83;9.85;;;;;;;;;;5014649;28;20103;-71
2022/02/03 15:25:12;;;;;;;21.02;10.80;;;;;;;;;;5015229;28;20030;-73
2022/02/03 15:27:39;;;;;;;29.17;11.30;;;;;;;;;;5014484;28;20022;-72
2022/02/03 15:30:06;;;;;;;20.92;10.38;;;;;;;;;;5017542;28;20038;-71
2022/02/03 15:32:38;;;;;;;25.98;10.95;;;;;;;;;;5017365;28;20084;-71
2022/02/03 15:35:08;;;;;;;20.65;11.15;;;;;;;;;;5020590;28;20057;-72
2022/02/03 15:37:34;;;;;;;25.35;12.10;;;;;;;;;;5027677;28;20112;-70
2022/02/03 15:40:05;;;;;;;27.92;12.40;;;;;;;;;;5031893;28;20032;-72
2022/02/03 15:42:38;;;;;;;21.33;11.93;;;;;;;;;;5015327;28;20062;-72
2022/02/03 15:45:05;;;;;;;24.02;12.05;;;;;;;;;;5014772;28;20106;-72
2022/02/03 15:47:37;;;;;;;26.80;13.80;;;;;;;;;;5013662;28;20029;-73
2022/02/03 16:03:16;;;;;;;31.85;14.57;;;;;;;;;;5014290;28;20033;-72
2022/02/03 16:14:40;;;;;;;36.28;16.35;;;;;;;;;;5032510;28;20033;-74
2022/02/03 16:16:53;;;;;;;33.55;17.50;;;;;;;;;;5035411;28;20037;-73
2022/02/03 16:19:22;;;;;;;39.92;17.88;;;;;;;;;;5036144;28;20048;-74
2022/02/03 16:22:04;;;;;;;42.33;17.95;;;;;;;;;;5036632;28;20068;-73
2022/02/03 16:24:49;;;;;;;43.35;18.23;;;;;;;;;;5035447;28;20026;-73
2022/02/03 16:54:14;;;;;;;49.15;19.50;;;;;;;;;;5029395;22;20053;31
2022/02/03 16:56:42;;;;;;;47.42;20.42;;;;;;;;;;5031053;28;20138;-72
2022/02/03 16:59:08;;;;;;;43.17;19.60;;;;;;;;;;5031346;28;20510;-71
2022/02/03 17:01:34;;;;;;;44.55;20.60;;;;;;;;;;5032994;28;20040;-71
2022/02/03 17:04:00;;;;;;;47.88;21.52;;;;;;;;;;5031043;28;20032;-71
2022/02/03 17:06:26;;;;;;;40.55;20.70;;;;;;;;;;5013848;28;20025;-73
2022/02/03 17:08:52;;;;;;;38.58;19.33;;;;;;;;;;5012742;28;20029;-73
2022/02/03 17:11:18;;;;;;;41.45;19.98;;;;;;;;;;5013967;28;20029;-73
2022/02/03 17:13:44;;;;;;;42.58;20.17;;;;;;;;;;5012399;28;20089;-74
2022/02/03 17:16:14;;;;;;;39.58;21.65;;;;;;;;;;5014784;28;20018;-73
2022/02/03 17:18:40;;;;;;;41.17;21.20;;;;;;;;;;5013579;28;20022;-75
2022/02/03 17:21:06;;;;;;;43.20;21.33;;;;;;;;;;5014790;28;20436;-74
2022/02/03 17:23:32;;;;;;;40.45;21.25;;;;;;;;;;5012991;28;20038;-73
2022/02/03 17:28:37;;;;;;;35.78;18.55;;;;;;;;;;5013706;28;20058;-72
2022/02/03 18:04:58;;;;;;;39.00;21.85;;;;;;;;;;5010777;28;20029;-71
2022/02/03 18:09:44;;;;;;;35.80;21.55;;;;;;;;;;5012066;28;20112;-73
2022/02/03 18:17:34;;;;;;;36.55;21.95;;;;;;;;;;5009894;28;20095;-73
2022/02/03 18:29:17;;;;;;;36.60;21.08;;;;;;;;;;5030720;28;20636;-72
2022/02/03 18:31:11;;;;;;;38.00;20.08;;;;;;;;;;5025284;28;20041;-74
2022/02/03 18:36:49;;;;;;;38.17;21.48;;;;;;;;;;4993029;28;20041;-72
2022/02/03 18:52:39;;;;;;;40.28;20.25;;;;;;;;;;4996773;28;20022;-71
2022/02/03 18:55:54;;;;;;;33.65;20.00;;;;;;;;;;4995454;28;20054;-72
2022/02/03 18:58:08;;;;;;;34.20;20.73;;;;;;;;;;4992820;28;20189;-73
2022/02/03 19:09:39;;;;;;;31.15;19.17;;;;;;;;;;5014909;28;20506;-72
2022/02/03 20:01:09;;;;;;;24.52;15.55;;;;;;;;;;4973935;28;20514;-71
2022/02/03 20:03:38;;;;;;;23.80;14.60;;;;;;;;;;4972633;28;20046;-70
2022/02/03 20:11:24;;;;;;;15.38;11.38;;;;;;;;;;4974674;28;20049;-70
2022/02/03 20:13:50;;;;;;;17.65;11.80;;;;;;;;;;4973856;28;20030;-71
2022/02/03 20:16:19;;;;;;;21.80;13.48;;;;;;;;;;4974752;28;20031;-70
2022/02/03 20:18:45;;;;;;;18.98;11.93;;;;;;;;;;4974675;28;20089;-69
2022/02/03 20:21:11;;;;;;;19.55;12.30;;;;;;;;;;4974413;28;20035;-68
2022/02/03 20:23:42;;;;;;;19.20;12.60;;;;;;;;;;4973731;28;20038;-68
2022/02/03 20:26:08;;;;;;;21.10;13.43;;;;;;;;;;4974412;28;20031;-68
2022/02/03 20:28:34;;;;;;;23.08;15.20;;;;;;;;;;4974424;28;20027;-68
2022/02/03 20:31:00;;;;;;;22.33;14.50;;;;;;;;;;4974298;28;20030;-68
2022/02/03 20:33:26;;;;;;;22.25;14.55;;;;;;;;;;4968125;28;20027;-68
2022/02/03 20:35:53;;;;;;;21.30;13.13;;;;;;;;;;4974405;28;20173;-68
2022/02/03 20:38:19;;;;;;;26.10;14.73;;;;;;;;;;4974250;28;20366;-69
2022/02/03 20:40:45;;;;;;;23.15;14.38;;;;;;;;;;4974318;28;20445;-69
2022/02/03 20:43:11;;;;;;;23.98;14.35;;;;;;;;;;4973583;28;20026;-69
2022/02/03 20:45:39;;;;;;;23.67;13.93;;;;;;;;;;4974325;28;20035;-69
2022/02/03 20:48:05;;;;;;;20.48;14.00;;;;;;;;;;4974668;28;20033;-68
2022/02/03 20:50:31;;;;;;;21.58;12.90;;;;;;;;;;4973812;28;20059;-69
2022/02/03 20:52:57;;;;;;;21.13;13.63;;;;;;;;;;4973367;28;20374;-69
2022/02/03 20:55:23;;;;;;;21.95;13.90;;;;;;;;;;4973841;28;20051;-68
2022/02/03 20:57:49;;;;;;;21.63;13.35;;;;;;;;;;4973991;28;20031;-68
2022/02/03 21:00:23;;;;;;;20.38;13.50;;;;;;;;;;4973643;28;20026;-69
2022/02/03 21:03:01;;;;;;;25.90;14.23;;;;;;;;;;4974190;28;20572;-69
2022/02/03 21:05:27;;;;;;;19.80;13.38;;;;;;;;;;4974410;28;20027;-68
2022/02/03 21:07:53;;;;;;;21.25;13.73;;;;;;;;;;4974484;28;20405;-69
2022/02/03 21:10:23;;;;;;;23.10;14.23;;;;;;;;;;4972799;28;20027;-68
2022/02/03 21:12:49;;;;;;;22.45;14.18;;;;;;;;;;4973192;28;20030;-71
2022/02/03 21:15:22;;;;;;;24.35;13.73;;;;;;;;;;4973948;28;20034;-70
2022/02/03 21:17:48;;;;;;;20.50;12.88;;;;;;;;;;4973883;28;20022;-68
2022/02/03 21:20:17;;;;;;;19.50;13.05;;;;;;;;;;4973610;28;20412;-68
2022/02/03 21:22:43;;;;;;;22.02;14.45;;;;;;;;;;4973497;28;20023;-68
2022/02/03 21:25:27;;;;;;;22.38;13.38;;;;;;;;;;4973963;28;20019;-69
2022/02/03 21:27:55;;;;;;;21.38;14.57;;;;;;;;;;4973691;28;20031;-69
2022/02/03 21:30:22;;;;;;;23.17;13.57;;;;;;;;;;4973531;28;20031;-72
2022/02/03 21:32:49;;;;;;;21.20;14.02;;;;;;;;;;4973079;28;20023;-68
2022/02/03 21:35:16;;;;;;;18.17;12.30;;;;;;;;;;4971885;28;20029;-67
2022/02/03 21:37:43;;;;;;;16.60;11.05;;;;;;;;;;4973378;28;20027;-69
2022/02/03 21:40:10;;;;;;;18.92;11.77;;;;;;;;;;4973360;28;20497;-67
2022/02/03 21:42:36;;;;;;;15.75;11.27;;;;;;;;;;4973218;28;20060;-71
2022/02/03 21:45:03;;;;;;;16.52;11.07;;;;;;;;;;4972683;28;20162;-71
2022/02/03 21:47:30;;;;;;;12.73;8.52;;;;;;;;;;4973198;28;20039;-69
2022/02/03 21:49:58;;;;;;;12.13;8.50;;;;;;;;;;4973141;28;20073;-71
2022/02/03 21:52:32;;;;;;;12.55;7.57;;;;;;;;;;4973071;28;20089;-69
2022/02/03 21:54:59;;;;;;;10.38;7.13;;;;;;;;;;4972470;28;20489;-71
2022/02/03 21:57:25;;;;;;;8.27;6.32;;;;;;;;;;4972298;28;20027;-68
2022/02/03 21:59:52;;;;;;;7.70;6.00;;;;;;;;;;4971950;28;20042;-68
2022/02/03 22:02:18;;;;;;;10.05;6.57;;;;;;;;;;4967962;28;20023;-68
2022/02/03 22:04:44;;;;;;;7.70;5.55;;;;;;;;;;4972600;28;20046;-68
2022/02/03 22:07:10;;;;;;;8.68;5.60;;;;;;;;;;4973017;28;20034;-68
2022/02/03 22:09:38;;;;;;;7.72;5.55;;;;;;;;;;4972973;28;20026;-69
2022/02/03 22:12:05;;;;;;;8.52;5.43;;;;;;;;;;4972675;28;20034;-70
2022/02/03 22:14:31;;;;;;;6.32;5.40;;;;;;;;;;4976494;28;20018;-71
2022/02/03 22:16:59;;;;;;;9.20;6.30;;;;;;;;;;4976921;28;20469;-68
2022/02/03 22:19:25;;;;;;;7.50;5.15;;;;;;;;;;4976713;28;20102;-68
2022/02/03 22:22:13;;;;;;;6.72;5.07;;;;;;;;;;4974870;28;20134;-71
2022/02/03 22:24:52;;;;;;;9.75;5.60;;;;;;;;;;4976701;28;20019;-69
2022/02/03 22:27:35;;;;;;;8.55;5.97;;;;;;;;;;4976999;28;20481;-69
2022/02/03 22:38:41;;;;;;;;;;;;;;;;;;;;;
2022/02/03 22:43:36;;;;;;;9.50;6.28;;;;;;;;;;4976291;28;20065;-70
2022/02/03 22:46:09;;;;;;;8.32;6.18;;;;;;;;;;4976811;28;20150;-70
2022/02/03 22:48:35;;;;;;;7.28;5.65;;;;;;;;;;4975459;28;20054;-72
2022/02/03 22:51:03;;;;;;;10.13;7.65;;;;;;;;;;4975947;28;20136;-70
2022/02/03 22:53:32;;;;;;;20.23;13.85;;;;;;;;;;4975578;28;20029;-72
2022/02/03 22:55:59;;;;;;;9.57;6.38;;;;;;;;;;4976215;28;20026;-71
2022/02/03 23:01:02;;;;;;;8.18;5.82;;;;;;;;;;4976426;28;20054;-71
2022/02/03 23:03:29;;;;;;;23.20;13.13;;;;;;;;;;4975112;28;20031;-68
2022/02/03 23:05:56;;;;;;;8.52;6.43;;;;;;;;;;4976501;28;20077;-70
2022/02/03 23:11:16;;;;;;;32.67;16.73;;;;;;;;;;4976343;28;20081;-71
2022/02/03 23:23:49;;;;;;;19.55;11.25;;;;;;;;;;4975097;28;20033;-67
2022/02/03 23:26:18;;;;;;;10.70;7.40;;;;;;;;;;4975896;28;20023;-68
2022/02/03 23:28:44;;;;;;;20.85;11.98;;;;;;;;;;4975655;28;20595;-68
2022/02/03 23:31:10;;;;;;;19.30;11.77;;;;;;;;;;4975641;28;20031;-68
2022/02/03 23:33:36;;;;;;;11.98;7.18;;;;;;;;;;4974793;28;20034;-68
2022/02/03 23:36:03;;;;;;;14.68;9.40;;;;;;;;;;4975715;28;20030;-68
2022/02/03 23:44:01;;;;;;;14.57;9.13;;;;;;;;;;4974763;28;20034;-70
